Flight Track Log - Related Links

Times and Time Zones

All times are in EST time to prevent confusion due to time zone crossing. See the AMF1324 flight status page for this flight to view local times or setup timezone preferences in your user account.

Time Position Orientation Groundspeed Altitude Reporting Facility
EST Latitude Longitude Course Direction KTS MPH feet Rate Location/Type
Fri 08:36:24 AM 42.1975 -76.0478 304° West 181 208 5,500  Level Cleveland Center
Fri 08:37:09 AM 42.1869 -76.0994 255° West 170 196 7,500 2,654 Climbing New York Center
Fri 08:38:08 AM 42.1778 -76.1631 259° West 175 201 10,100 2,269 Climbing New York Center
Fri 08:39:08 AM 42.1914 -76.2286 286° West 175 201 12,000 942 Climbing New York Center
Fri 08:40:09 AM 42.2214 -76.3039 298° West 211 243 12,000  Level New York Center
Fri 08:41:00 AM 42.2819 -76.2420 304° West  Level Estimated
Fri 08:41:10 AM 42.2442 -76.3900 290° West 224 258 12,000  Level New York Center
Fri 08:42:36 AM 42.2958 -76.5006 302° West 242 278 12,000  Level Cleveland Center
Fri 08:43:38 AM 42.3311 -76.5786 301° West 243 280 12,000  Level Cleveland Center
Fri 08:44:40 AM 42.3689 -76.6767 298° West 246 283 12,000  Level Cleveland Center
Fri 08:45:42 AM 42.4033 -76.7558 301° West 246 283 12,000  Level Cleveland Center
Fri 08:46:44 AM 42.4308 -76.8392 294° West 243 280 12,000  Level Cleveland Center
Fri 08:47:46 AM 42.4600 -76.9208 296° West 241 277 12,000  Level Cleveland Center
Fri 08:48:48 AM 42.4919 -76.9994 299° West 241 277 12,000  Level Cleveland Center
Fri 08:49:50 AM 42.5281 -77.0764 303° West 243 280 12,000  Level Cleveland Center
Fri 08:50:53 AM 42.5694 -77.1683 301° West 241 277 12,000  Level Cleveland Center
Fri 08:51:55 AM 42.5997 -77.2481 297° West 240 276 12,000 -48 Level Cleveland Center
Fri 08:52:57 AM 42.6353 -77.3261 302° West 242 278 11,900  Descending Cleveland Center
Fri 08:53:59 AM 42.6744 -77.3992 306° West 242 278 12,000 48 Climbing Cleveland Center
Fri 08:55:01 AM 42.7136 -77.4683 308° West 236 272 12,000  Level Cleveland Center
Fri 08:56:03 AM 42.7553 -77.5578 302° West 237 273 12,000  Level Cleveland Center
Fri 08:57:05 AM 42.7917 -77.6300 304° West 235 270 12,000 -48 Level Cleveland Center
Fri 08:58:07 AM 42.8203 -77.7092 296° West 236 272 11,900 -97 Descending Cleveland Center
Fri 08:59:09 AM 42.8461 -77.7911 293° West 250 288 11,800 -145 Descending Cleveland Center
Fri 09:00:11 AM 42.8342 -77.9025 262° West 249 287 11,600 -387 Descending Cleveland Center
Fri 09:01:13 AM 42.8347 -77.9964 270° West 250 288 11,000 -336 Descending Cleveland Center
Fri 09:02:16 AM 42.8411 -78.0856 276° West 239 275 10,900 -384 Descending Cleveland Center
Fri 09:03:18 AM 42.8481 -78.1747 276° West 238 274 10,200 -1,403 Descending Cleveland Center
Fri 09:04:20 AM 42.8550 -78.2775 275° West 243 280 8,000 -2,226 Descending Cleveland Center
Fri 09:05:22 AM 42.8647 -78.3700 278° West 237 273 5,600 -1,887 Descending Cleveland Center
Fri 09:06:24 AM 42.8722 -78.4589 277° West 224 258 4,100 -919 Descending Cleveland Center
Fri 09:07:26 AM 42.8875 -78.5342 286° West 197 227 3,700 -774 Descending Cleveland Center
Fri 09:08:28 AM 42.9017 -78.6006 286° West 193 222 2,500 -848 Descending Cleveland Center
Fri 09:08:58 AM 42.9000 -78.6333 266° West 166 191 2,400 -667 Descending Buffalo TRACON
Fri 09:09:58 AM 42.9167 -78.6833 294° West 113 130 1,500 -737 Descending Buffalo TRACON
Fri 09:10:52 AM 42.9333 -78.7167 304° West 114 131 1,000 -556 Descending Buffalo TRACON
Fri 09:12:00 AM 42.9404 -78.7306 270° West  Level Estimated
Fri 09:19:00 AM 42.9404 -78.7306 270° West  Level Estimated

Login

Don't have an account? Register now (free) for customized features, flight alerts, and more!